Archival Weather

Norman Y Mineta San Jose Intl

San Jose, California (KSJC)

Report from: Wednesday, April 3, 2024 4:45 AM PDT
Current time: Tuesday, May 21, 2024 10:49 AM PDT

Current weather – Weather history – Daily summaries
Weather forecast

Temperature11.7°C (53.1°F)
Dew point8.9°C (48.0°F)
Winds 3 kts (1.5 m/s, 3.5 mph) East (80°)
Visibility10 mi. (16.1 km)
Clouds Ceiling: Broken clouds 1,300 ft. (396 m)
Altimeter30.23 in.Hg (1024 mB)
Relative humidity83 %
Density altitude-584 ft. (-178 m)
Remarks Fully automated report
Automated weather observing station with precipitation discriminator
Flight conditions Marginal Visual Meteorological Conditions
Raw dataKSJC 031145Z AUTO 08003KT 10SM BKN013 12/09 A3023 RMK AO2 T01170089
An error has occurred. This application may no longer respond until reloaded. Reload 🗙